Time;durP1;ratioP1;P1;durP2;ratioP2;P2;SDS_P1;SDS_P2;PMS_P1;PMS_P2;Temp;Humidity;BMP_temperature;BMP_pressure;BME280_temperature;BME280_humidity;BME280_pressure;Samples;Min_cycle;Max_cycle;Signal;HPM_P1;HPM_P2
2021/05/29 07:06:50;;;;;;;5.78;4.03;;;;;;;;;;10555834;28;20044;-87
2021/05/29 07:12:07;;;;;;;6.93;4.53;;;;;;;;;;10555528;28;20040;-86
2021/05/29 07:17:13;;;;;;;7.57;6.72;;;;;;;;;;10572497;28;20059;-86
2021/05/29 07:28:07;;;;;;;5.55;4.65;;;;;;;;;;10402673;28;20090;-86
2021/05/29 07:33:23;;;;;;;5.88;4.60;;;;;;;;;;10447426;28;20132;-85
2021/05/29 07:38:33;;;;;;;5.32;3.97;;;;;;;;;;10536482;28;20035;-85
2021/05/29 07:43:56;;;;;;;7.28;6.22;;;;;;;;;;10539392;28;20092;-85
2021/05/29 07:49:15;;;;;;;4.47;3.88;;;;;;;;;;10579919;28;20525;-85
2021/05/29 08:00:49;;;;;;;3.85;3.30;;;;;;;;;;10519357;28;20035;-86
2021/05/29 08:06:28;;;;;;;7.50;6.35;;;;;;;;;;10543451;28;20035;-86
2021/05/29 08:11:48;;;;;;;6.03;5.40;;;;;;;;;;10537861;28;20112;-85
2021/05/29 08:16:58;;;;;;;6.22;5.63;;;;;;;;;;10552764;28;20032;-85
2021/05/29 08:22:36;;;;;;;5.20;3.75;;;;;;;;;;10562877;28;20032;-85
2021/05/29 08:27:54;;;;;;;4.70;3.80;;;;;;;;;;10523028;28;20138;-86
2021/05/29 08:32:56;;;;;;;6.80;6.10;;;;;;;;;;10567598;28;20079;-85
2021/05/29 08:37:57;;;;;;;5.35;4.28;;;;;;;;;;10507372;28;20043;-85
2021/05/29 08:43:36;;;;;;;5.60;4.32;;;;;;;;;;10556317;28;20032;-86
2021/05/29 09:00:02;;;;;;;5.15;3.90;;;;;;;;;;10573854;28;20020;-86
2021/05/29 09:33:51;;;;;;;4.85;3.90;;;;;;;;;;10240477;29;20095;-86
2021/05/29 10:19:12;;;;;;;3.78;3.25;;;;;;;;;;10150239;29;20040;-86
2021/05/29 10:41:10;;;;;;;5.22;4.72;;;;;;;;;;10254236;28;20110;-86
2021/05/29 10:46:32;;;;;;;5.95;4.45;;;;;;;;;;10333723;28;20043;-86
2021/05/29 10:51:43;;;;;;;4.57;4.05;;;;;;;;;;10515131;28;20041;-85
2021/05/29 10:56:59;;;;;;;4.57;4.10;;;;;;;;;;10545651;23;20111;-85
2021/05/29 11:02:31;;;;;;;4.95;3.00;;;;;;;;;;10527508;28;20059;-87
2021/05/29 11:19:11;;;;;;;4.40;3.92;;;;;;;;;;10487620;28;20484;-86
2021/05/29 11:24:19;;;;;;;4.28;3.13;;;;;;;;;;10482957;28;20033;-86
2021/05/29 11:29:46;;;;;;;4.05;3.65;;;;;;;;;;10481896;28;20044;-86
2021/05/29 11:35:01;;;;;;;4.70;4.28;;;;;;;;;;10483770;28;20498;-86
2021/05/29 11:40:13;;;;;;;5.40;3.95;;;;;;;;;;10504533;28;20033;-86
2021/05/29 11:45:43;;;;;;;6.15;4.50;;;;;;;;;;10524118;28;20028;-86
2021/05/29 11:56:50;;;;;;;5.30;3.80;;;;;;;;;;10505704;28;20146;-86
2021/05/29 12:13:36;;;;;;;5.40;4.90;;;;;;;;;;10518643;28;20037;-86
2021/05/29 12:18:41;;;;;;;4.80;4.30;;;;;;;;;;10512001;28;20032;-86
2021/05/29 12:24:08;;;;;;;5.47;4.97;;;;;;;;;;10516812;28;20406;-86
2021/05/29 12:29:28;;;;;;;4.43;3.60;;;;;;;;;;10518588;28;20036;-87
2021/05/29 12:34:49;;;;;;;7.38;5.60;;;;;;;;;;10497202;28;20039;-86
2021/05/29 12:51:33;;;;;;;5.60;5.00;;;;;;;;;;10327562;28;20042;-87
2021/05/29 13:25:49;;;;;;;5.67;4.57;;;;;;;;;;10160605;29;20040;-86
2021/05/29 13:31:16;;;;;;;6.55;5.20;;;;;;;;;;10247899;28;20114;-87
2021/05/29 13:36:51;;;;;;;5.55;4.30;;;;;;;;;;10443828;28;20032;-86
2021/05/29 13:42:03;;;;;;;5.53;4.50;;;;;;;;;;10494206;28;20552;-86
2021/05/29 13:52:57;;;;;;;4.05;3.55;;;;;;;;;;10393936;28;20022;-86
2021/05/29 13:58:14;;;;;;;4.93;4.43;;;;;;;;;;10366808;28;20053;-87
2021/05/29 14:03:49;;;;;;;5.65;4.55;;;;;;;;;;10360912;28;20480;-88
2021/05/29 14:09:14;;;;;;;4.82;4.32;;;;;;;;;;10369177;28;20034;-87
2021/05/29 14:14:15;;;;;;;4.85;4.32;;;;;;;;;;10344147;28;20041;-87
2021/05/29 14:19:32;;;;;;;5.30;4.80;;;;;;;;;;10342996;28;20037;-87
2021/05/29 14:25:17;;;;;;;5.20;4.70;;;;;;;;;;10380012;28;20057;-88
2021/05/29 14:31:07;;;;;;;5.35;4.85;;;;;;;;;;10307161;28;20038;-87
2021/05/29 14:36:21;;;;;;;5.18;4.65;;;;;;;;;;10419173;28;20080;-86
2021/05/29 14:41:57;;;;;;;5.32;4.82;;;;;;;;;;10375781;28;20041;-87
2021/05/29 14:47:19;;;;;;;5.68;5.05;;;;;;;;;;10403425;28;20037;-86
2021/05/29 14:53:05;;;;;;;5.60;5.10;;;;;;;;;;10507147;28;20033;-87
2021/05/29 14:58:07;;;;;;;4.63;4.22;;;;;;;;;;10457426;28;20035;-87
2021/05/29 15:03:11;;;;;;;7.10;6.40;;;;;;;;;;10498479;28;20036;-87
2021/05/29 15:08:26;;;;;;;5.90;4.90;;;;;;;;;;10484980;28;20041;-86
2021/05/29 15:13:35;;;;;;;6.97;5.32;;;;;;;;;;10455458;28;20047;-87
2021/05/29 15:19:06;;;;;;;5.68;5.10;;;;;;;;;;10466521;28;20150;-87
2021/05/29 15:24:18;;;;;;;6.40;5.80;;;;;;;;;;10496424;28;20039;-87
2021/05/29 15:29:29;;;;;;;7.97;6.60;;;;;;;;;;10512642;28;20036;-88
2021/05/29 15:34:41;;;;;;;6.10;5.22;;;;;;;;;;10497113;28;20424;-87
2021/05/29 17:31:48;;;;;;;4.50;4.10;;;;;;;;;;10466962;28;20033;-85
2021/05/29 17:36:49;;;;;;;4.93;4.22;;;;;;;;;;10447331;28;20029;-87
2021/05/29 17:41:54;;;;;;;4.30;3.90;;;;;;;;;;10462144;28;20483;-86
2021/05/29 17:47:19;;;;;;;5.55;4.72;;;;;;;;;;10465253;28;20033;-86
2021/05/29 17:52:26;;;;;;;4.47;3.83;;;;;;;;;;10458899;28;20432;-87
2021/05/29 17:57:31;;;;;;;7.88;4.80;;;;;;;;;;10464078;28;20025;-88
2021/05/29 18:02:48;;;;;;;5.32;4.28;;;;;;;;;;10465231;28;20059;-87
2021/05/29 18:08:20;;;;;;;4.30;3.85;;;;;;;;;;10463096;28;20135;-87
2021/05/29 18:13:39;;;;;;;6.82;5.13;;;;;;;;;;10463911;28;20043;-87
2021/05/29 18:18:57;;;;;;;4.85;4.35;;;;;;;;;;10466904;28;20037;-87
2021/05/29 18:24:30;;;;;;;4.80;4.30;;;;;;;;;;10475869;28;20040;-87
2021/05/29 18:30:09;;;;;;;4.35;3.63;;;;;;;;;;10476163;28;20037;-87
2021/05/29 18:41:02;;;;;;;3.47;3.17;;;;;;;;;;10464877;28;20025;-87
2021/05/29 18:46:04;;;;;;;5.43;4.10;;;;;;;;;;10460914;28;20064;-87
2021/05/29 18:51:05;;;;;;;5.30;3.70;;;;;;;;;;10462964;28;20040;-87
2021/05/29 18:56:07;;;;;;;4.57;4.18;;;;;;;;;;10467403;28;20400;-88
2021/05/29 19:07:19;;;;;;;4.43;4.03;;;;;;;;;;10469423;28;20028;-87
2021/05/29 19:12:35;;;;;;;6.03;5.38;;;;;;;;;;10468919;28;20461;-88
2021/05/29 19:17:43;;;;;;;;;;;;;;;;;;10493917;28;20033;-87
2021/05/29 19:23:29;;;;;;;5.55;5.05;;;;;;;;;;10510779;28;19951;-88
2021/05/29 19:28:30;;;;;;;4.85;4.15;;;;;;;;;;10503930;28;20109;-87
2021/05/29 19:39:17;;;;;;;3.75;3.35;;;;;;;;;;10486086;28;20029;-87
2021/05/29 20:29:37;;;;;;;4.55;4.15;;;;;;;;;;10397762;28;20443;-87
2021/05/29 20:40:36;;;;;;;4.78;4.28;;;;;;;;;;10467500;28;20037;-87
2021/05/29 20:45:47;;;;;;;4.30;3.90;;;;;;;;;;10480315;28;20056;-87
2021/05/29 20:51:28;;;;;;;3.90;3.60;;;;;;;;;;10466355;28;20041;-87
2021/05/29 20:56:32;;;;;;;3.60;3.30;;;;;;;;;;10467857;28;20037;-87
2021/05/29 21:01:38;;;;;;;4.88;4.38;;;;;;;;;;10468418;28;20061;-87
2021/05/29 21:12:44;;;;;;;6.25;5.65;;;;;;;;;;10465486;28;20101;-87
2021/05/29 21:22:54;;;;;;;4.88;4.47;;;;;;;;;;10466214;28;20549;-87
2021/05/29 21:28:18;;;;;;;5.25;4.82;;;;;;;;;;10420151;28;20045;-88
2021/05/29 21:34:05;;;;;;;4.18;3.83;;;;;;;;;;10412983;28;20167;-87
2021/05/29 21:39:13;;;;;;;5.43;4.07;;;;;;;;;;10401596;28;20084;-88
2021/05/29 21:44:16;;;;;;;4.75;4.25;;;;;;;;;;10400727;28;20479;-88
2021/05/29 21:49:18;;;;;;;5.60;5.10;;;;;;;;;;10444893;28;20497;-87
2021/05/29 21:54:20;;;;;;;6.47;5.70;;;;;;;;;;10461335;28;20060;-87
2021/05/29 21:59:23;;;;;;;4.43;4.03;;;;;;;;;;10463863;28;20029;-88
2021/05/29 22:04:24;;;;;;;7.10;5.05;;;;;;;;;;10462643;28;20037;-89
2021/05/29 22:09:26;;;;;;;3.60;3.30;;;;;;;;;;10459799;28;20120;-88
2021/05/29 22:19:54;;;;;;;4.63;4.22;;;;;;;;;;10461773;28;20061;-87
2021/05/29 22:30:17;;;;;;;3.70;3.40;;;;;;;;;;10494690;28;20033;-87
2021/05/29 22:35:18;;;;;;;4.30;3.90;;;;;;;;;;10489306;28;20037;-87
2021/05/29 22:40:19;;;;;;;4.05;3.72;;;;;;;;;;10475967;28;20390;-88
2021/05/29 22:45:20;;;;;;;4.60;4.13;;;;;;;;;;10472533;28;20048;-87
2021/05/29 22:50:21;;;;;;;4.63;4.15;;;;;;;;;;10471711;28;20052;-87
2021/05/29 22:55:22;;;;;;;5.18;4.68;;;;;;;;;;10471285;28;20053;-87
2021/05/29 23:00:24;;;;;;;4.93;4.50;;;;;;;;;;10470812;28;20132;-87
2021/05/29 23:05:25;;;;;;;4.13;3.78;;;;;;;;;;10469779;28;20032;-87
2021/05/29 23:10:26;;;;;;;4.43;4.03;;;;;;;;;;10479454;28;20029;-87
2021/05/29 23:15:27;;;;;;;4.90;4.05;;;;;;;;;;10474292;28;20033;-87
2021/05/29 23:20:28;;;;;;;5.78;5.28;;;;;;;;;;10467857;28;20079;-87
